createdAt,value
2022-12-15T00:00:45.848Z,1.23
2022-12-15T00:03:34.598Z,1.22
2022-12-15T00:06:21.342Z,1.21
2022-12-15T00:09:12.641Z,1.19
2022-12-15T00:11:55.307Z,1.19
2022-12-15T00:14:42.178Z,1.21
2022-12-15T00:17:28.528Z,1.22
2022-12-15T00:20:14.928Z,1.23
2022-12-15T00:23:01.024Z,1.24
2022-12-15T00:25:47.107Z,1.26
2022-12-15T00:28:33.411Z,1.14
2022-12-15T00:31:19.586Z,1.27
2022-12-15T00:34:05.637Z,1.28
2022-12-15T00:36:52.543Z,1.29
2022-12-15T00:39:20.330Z,1.31
2022-12-15T00:41:47.819Z,1.33
2022-12-15T00:44:20.395Z,1.34
2022-12-15T00:46:53.929Z,1.35
2022-12-15T00:49:43.505Z,1.36
2022-12-15T00:52:30.526Z,1.36
2022-12-15T00:55:16.807Z,1.35
2022-12-15T00:58:03.020Z,1.37
2022-12-15T01:00:49.964Z,1.35
2022-12-15T01:03:40.535Z,1.34
2022-12-15T01:06:33.057Z,1.35
2022-12-15T01:09:20.664Z,1.36
2022-12-15T01:12:06.823Z,1.37
2022-12-15T01:14:53.662Z,1.37
2022-12-15T01:17:41.307Z,1.37
2022-12-15T01:20:18.786Z,1.37
2022-12-15T01:22:49.713Z,1.37
2022-12-15T01:25:19.629Z,1.37
2022-12-15T01:27:47.537Z,1.37
2022-12-15T01:30:19.012Z,1.35
2022-12-15T01:32:46.850Z,1.35
2022-12-15T01:35:15.517Z,1.34
2022-12-15T01:37:44.097Z,1.34
2022-12-15T01:40:34.853Z,1.33
2022-12-15T01:43:02.816Z,1.31
2022-12-15T01:45:35.859Z,1.31
2022-12-15T01:48:10.737Z,1.31
2022-12-15T01:50:46.519Z,1.31
2022-12-15T01:53:15.648Z,1.32
2022-12-15T01:55:45.871Z,1.32
2022-12-15T01:58:18.737Z,1.32
2022-12-15T02:00:46.230Z,1.32
2022-12-15T02:03:14.402Z,1.32
2022-12-15T02:05:42.569Z,1.32
2022-12-15T02:08:11.070Z,1.32
2022-12-15T02:10:53.379Z,1.31
2022-12-15T02:13:38.428Z,1.32
2022-12-15T02:16:26.627Z,1.32
2022-12-15T02:19:18.124Z,1.33
2022-12-15T02:22:09.772Z,1.34
2022-12-15T02:25:04.422Z,1.35
2022-12-15T02:28:06.578Z,1.36
2022-12-15T02:31:22.092Z,1.36
2022-12-15T02:34:06.172Z,1.36
2022-12-15T02:36:45.013Z,1.37
2022-12-15T02:39:17.726Z,1.38
2022-12-15T02:41:48.640Z,1.38
2022-12-15T02:44:22.157Z,1.39
2022-12-15T02:47:23.048Z,1.39
2022-12-15T02:50:13.082Z,1.41
2022-12-15T02:53:00.998Z,1.39
2022-12-15T02:55:52.579Z,1.39
2022-12-15T02:58:45.652Z,1.39
2022-12-15T03:01:27.465Z,1.40
2022-12-15T03:03:57.045Z,1.39
2022-12-15T03:06:27.880Z,1.38
2022-12-15T03:08:55.641Z,1.28
2022-12-15T03:11:23.671Z,1.39
2022-12-15T03:13:52.692Z,1.40
2022-12-15T03:16:21.369Z,1.40
2022-12-15T03:18:51.173Z,1.41
2022-12-15T03:21:18.922Z,1.42
2022-12-15T03:23:46.601Z,1.42
2022-12-15T03:26:14.390Z,1.45
2022-12-15T03:28:42.195Z,1.43
2022-12-15T03:31:10.067Z,1.46
2022-12-15T03:33:37.808Z,1.49
2022-12-15T03:36:06.167Z,1.49
2022-12-15T03:38:34.161Z,1.49
2022-12-15T03:41:02.069Z,1.51
2022-12-15T03:43:30.162Z,1.52
2022-12-15T03:45:58.053Z,1.54
2022-12-15T03:48:25.915Z,1.54
2022-12-15T03:50:53.450Z,1.54
2022-12-15T03:53:21.164Z,1.47
2022-12-15T03:55:48.916Z,1.56
2022-12-15T03:58:16.726Z,1.57
2022-12-15T04:00:44.527Z,1.56
2022-12-15T04:03:12.672Z,1.56
2022-12-15T04:05:42.378Z,1.56
2022-12-15T04:08:11.123Z,1.54
2022-12-15T04:10:38.833Z,1.52
2022-12-15T04:13:09.480Z,1.52
2022-12-15T04:15:39.571Z,1.48
2022-12-15T04:18:09.928Z,1.44
2022-12-15T04:20:39.620Z,1.44
2022-12-15T04:23:08.193Z,1.42
2022-12-15T04:25:55.845Z,1.44
2022-12-15T04:28:42.908Z,1.43
2022-12-15T04:31:38.864Z,1.41
2022-12-15T04:34:29.482Z,1.41
2022-12-15T04:37:16.428Z,1.41
2022-12-15T04:40:06.962Z,1.40
2022-12-15T04:42:57.930Z,1.41
2022-12-15T04:45:44.414Z,1.41
2022-12-15T04:48:30.782Z,1.41
2022-12-15T04:51:17.229Z,1.43
2022-12-15T04:54:04.310Z,1.45
2022-12-15T04:56:50.923Z,1.46
2022-12-15T04:59:37.311Z,1.46
2022-12-15T05:02:23.902Z,1.46
2022-12-15T05:05:10.001Z,1.47
2022-12-15T05:07:56.178Z,1.46
2022-12-15T05:10:41.981Z,1.45
2022-12-15T05:13:28.656Z,1.45
2022-12-15T05:16:15.355Z,1.43
2022-12-15T05:19:01.373Z,1.43
2022-12-15T05:21:47.729Z,1.42
2022-12-15T05:24:36.420Z,1.43
2022-12-15T05:27:22.954Z,1.42
2022-12-15T05:30:10.149Z,1.40
2022-12-15T05:32:38.425Z,1.36
2022-12-15T05:35:06.985Z,1.35
2022-12-15T05:37:34.756Z,1.35
2022-12-15T05:40:04.593Z,1.36
2022-12-15T05:42:33.593Z,1.37
2022-12-15T05:45:01.930Z,1.37
2022-12-15T05:47:30.354Z,1.38
2022-12-15T05:49:58.501Z,1.40
2022-12-15T05:52:26.550Z,1.42
2022-12-15T05:54:55.099Z,1.45
2022-12-15T05:57:23.956Z,1.46
2022-12-15T05:59:53.620Z,1.48
2022-12-15T06:02:21.963Z,1.50
2022-12-15T06:04:54.432Z,1.51
2022-12-15T06:07:22.818Z,1.54
2022-12-15T06:09:51.085Z,1.55
2022-12-15T06:12:18.973Z,1.59
2022-12-15T06:14:47.620Z,1.60
2022-12-15T06:17:22.713Z,1.62
2022-12-15T06:19:51.443Z,1.62
2022-12-15T06:22:20.095Z,1.67
2022-12-15T06:24:48.145Z,1.68
2022-12-15T06:27:16.979Z,1.67
2022-12-15T06:29:45.064Z,1.69
2022-12-15T06:32:14.361Z,1.71
2022-12-15T06:34:42.608Z,1.74
2022-12-15T06:37:10.840Z,1.75
2022-12-15T06:39:40.078Z,1.75
2022-12-15T06:42:09.280Z,1.76
2022-12-15T06:44:37.165Z,1.78
2022-12-15T06:47:05.230Z,1.80
2022-12-15T06:49:35.490Z,1.80
2022-12-15T06:52:13.287Z,1.81
2022-12-15T06:54:52.064Z,1.83
2022-12-15T06:57:23.061Z,1.85
2022-12-15T06:59:51.866Z,1.84
2022-12-15T07:02:26.906Z,1.85
2022-12-15T07:04:53.719Z,1.84
2022-12-15T07:07:22.671Z,1.83
2022-12-15T07:09:56.592Z,1.83
2022-12-15T07:12:27.923Z,1.88
2022-12-15T07:14:55.895Z,1.87
2022-12-15T07:17:23.850Z,1.95
2022-12-15T07:19:59.467Z,1.98
2022-12-15T07:22:29.050Z,2.01
2022-12-15T07:24:57.582Z,2.05
2022-12-15T07:27:25.648Z,2.04
2022-12-15T07:29:53.339Z,1.99
2022-12-15T07:32:21.228Z,1.97
2022-12-15T07:34:48.990Z,1.97
2022-12-15T07:37:17.778Z,2.00
2022-12-15T07:39:45.730Z,2.06
2022-12-15T07:42:13.379Z,2.09
2022-12-15T07:44:41.212Z,2.15
2022-12-15T07:47:09.335Z,2.19
2022-12-15T07:49:37.331Z,2.20
2022-12-15T07:52:05.853Z,2.21
2022-12-15T07:54:34.014Z,2.20
2022-12-15T07:57:02.319Z,2.20
2022-12-15T07:59:31.324Z,2.18
2022-12-15T08:02:00.453Z,2.19
2022-12-15T08:04:28.439Z,2.21
2022-12-15T08:06:57.570Z,2.24
2022-12-15T08:09:25.616Z,2.27
2022-12-15T08:11:53.483Z,2.31
2022-12-15T08:14:21.648Z,2.36
2022-12-15T08:16:51.950Z,2.42
2022-12-15T08:19:20.491Z,2.48
2022-12-15T08:21:48.615Z,2.56
2022-12-15T08:24:18.976Z,2.63
2022-12-15T08:26:50.448Z,2.71
2022-12-15T08:29:49.584Z,2.79
2022-12-15T08:31:48.015Z,2.84
2022-12-15T08:34:18.683Z,2.93
2022-12-15T08:36:46.339Z,2.99
2022-12-15T08:39:16.173Z,3.06
2022-12-15T08:41:47.931Z,3.13
2022-12-15T08:44:17.785Z,3.19
2022-12-15T08:46:45.804Z,3.26
2022-12-15T08:49:19.560Z,3.31
2022-12-15T08:51:43.387Z,3.36
2022-12-15T08:54:11.311Z,3.42
2022-12-15T08:56:40.249Z,3.45
2022-12-15T08:59:09.375Z,3.45
2022-12-15T09:01:39.986Z,3.44
2022-12-15T09:04:11.661Z,3.44
2022-12-15T09:06:40.338Z,3.42
2022-12-15T09:09:14.008Z,3.47
2022-12-15T09:11:45.183Z,3.49
2022-12-15T09:14:13.185Z,3.52
2022-12-15T09:16:41.021Z,3.53
2022-12-15T09:19:10.668Z,3.56
2022-12-15T09:21:39.720Z,3.58
2022-12-15T09:24:07.874Z,3.46
2022-12-15T09:26:35.963Z,3.62
2022-12-15T09:29:06.088Z,3.55
2022-12-15T09:31:37.934Z,3.70
2022-12-15T09:34:06.078Z,3.74
2022-12-15T09:36:34.569Z,3.81
2022-12-15T09:39:03.700Z,3.84
2022-12-15T09:41:35.011Z,3.88
2022-12-15T09:44:21.509Z,3.94
2022-12-15T09:47:11.075Z,3.91
2022-12-15T09:49:52.688Z,3.95
2022-12-15T09:52:28.872Z,3.98
2022-12-15T09:55:01.012Z,3.99
2022-12-15T09:57:55.026Z,3.97
2022-12-15T10:00:55.248Z,3.95
2022-12-15T10:03:59.527Z,3.95
2022-12-15T10:06:37.671Z,3.98
2022-12-15T10:09:23.399Z,4.00
2022-12-15T10:12:19.281Z,4.01
2022-12-15T10:15:04.563Z,4.11
2022-12-15T10:17:50.200Z,4.22
2022-12-15T10:20:28.605Z,4.30
2022-12-15T10:23:12.856Z,4.37
2022-12-15T10:26:02.162Z,4.42
2022-12-15T10:28:53.695Z,4.49
2022-12-15T10:31:48.100Z,4.56
2022-12-15T10:34:25.100Z,4.64
2022-12-15T10:37:01.568Z,4.71
2022-12-15T10:39:39.966Z,4.78
2022-12-15T10:42:22.969Z,4.84
2022-12-15T10:44:55.635Z,4.88
2022-12-15T10:47:31.019Z,4.93
2022-12-15T10:50:24.745Z,4.94
2022-12-15T10:52:50.237Z,4.96
2022-12-15T10:55:41.456Z,4.99
2022-12-15T10:58:23.306Z,5.01
2022-12-15T11:01:11.441Z,4.98
2022-12-15T11:03:40.803Z,5.02
2022-12-15T11:06:32.261Z,5.11
2022-12-15T11:09:25.399Z,5.07
2022-12-15T11:12:12.398Z,5.25
2022-12-15T11:14:52.501Z,5.34
2022-12-15T11:17:23.776Z,5.43
2022-12-15T11:20:09.197Z,5.49
2022-12-15T11:22:52.068Z,5.56
2022-12-15T11:25:58.081Z,5.65
2022-12-15T11:28:36.452Z,5.71
2022-12-15T11:31:09.617Z,5.75
2022-12-15T11:33:38.496Z,5.78
2022-12-15T11:36:32.499Z,5.83
2022-12-15T11:39:06.018Z,5.84
2022-12-15T11:41:54.313Z,5.92
2022-12-15T11:44:37.193Z,5.92
2022-12-15T11:47:25.112Z,5.87
2022-12-15T11:50:16.344Z,5.84
2022-12-15T11:53:10.010Z,5.82
2022-12-15T11:55:57.716Z,5.83
2022-12-15T11:58:56.806Z,5.84
2022-12-15T12:04:32.443Z,5.82
2022-12-15T12:07:44.432Z,5.74
2022-12-15T12:10:49.089Z,5.70
2022-12-15T12:13:28.308Z,5.62
2022-12-15T12:16:58.911Z,5.57
2022-12-15T12:19:38.371Z,5.52
2022-12-15T12:22:23.568Z,5.46
2022-12-15T12:25:01.379Z,5.45
2022-12-15T12:27:43.506Z,5.44
2022-12-15T12:30:18.690Z,5.44
2022-12-15T12:32:54.802Z,5.43
2022-12-15T12:35:49.153Z,5.43
2022-12-15T12:38:22.882Z,5.43
2022-12-15T12:41:11.707Z,5.41
2022-12-15T12:43:44.932Z,5.39
2022-12-15T12:46:18.097Z,5.38
2022-12-15T12:48:56.954Z,5.29
2022-12-15T12:51:34.968Z,5.36
2022-12-15T12:54:07.110Z,5.35
2022-12-15T12:56:44.048Z,5.36
2022-12-15T12:59:35.876Z,5.36
2022-12-15T13:02:25.899Z,5.39
2022-12-15T13:05:07.102Z,5.41
2022-12-15T13:07:43.171Z,5.42
2022-12-15T13:10:20.925Z,5.43
2022-12-15T13:12:59.692Z,5.43
2022-12-15T13:15:34.046Z,5.43
2022-12-15T13:18:19.212Z,5.42
2022-12-15T13:20:50.502Z,5.43
2022-12-15T13:23:27.112Z,5.43
2022-12-15T13:26:03.592Z,5.41
2022-12-15T13:28:44.229Z,5.38
2022-12-15T13:31:22.198Z,5.36
2022-12-15T13:34:00.269Z,5.35
2022-12-15T13:36:50.652Z,5.32
2022-12-15T13:39:29.047Z,5.32
2022-12-15T13:44:48.895Z,5.32
2022-12-15T13:47:23.036Z,5.31
2022-12-15T13:50:08.314Z,5.31
2022-12-15T13:53:18.440Z,5.28
2022-12-15T13:55:30.444Z,5.25
2022-12-15T13:58:15.631Z,5.24
2022-12-15T14:00:53.990Z,5.22
2022-12-15T14:03:23.033Z,5.19
2022-12-15T14:08:31.349Z,5.10
2022-12-15T14:11:16.464Z,5.06
2022-12-15T14:13:37.295Z,5.01
2022-12-15T14:16:18.868Z,4.97
2022-12-15T14:19:16.968Z,4.94
2022-12-15T14:21:59.041Z,4.92
2022-12-15T14:24:40.821Z,4.88
2022-12-15T14:27:05.406Z,4.84
2022-12-15T14:29:36.004Z,4.79
2022-12-15T14:32:04.599Z,4.76
2022-12-15T14:34:39.562Z,4.73
2022-12-15T14:37:11.357Z,4.70
2022-12-15T14:39:47.257Z,4.68
2022-12-15T14:42:21.563Z,4.66
2022-12-15T14:44:50.662Z,4.63
2022-12-15T14:47:26.210Z,4.59
2022-12-15T14:49:59.062Z,4.54
2022-12-15T14:52:41.365Z,4.50
2022-12-15T14:55:39.900Z,4.46
2022-12-15T14:58:29.457Z,4.45
2022-12-15T15:00:59.245Z,4.43
2022-12-15T15:03:10.218Z,5.86
2022-12-15T15:03:40.405Z,4.40
2022-12-15T15:06:16.818Z,4.37
2022-12-15T15:08:50.613Z,4.36
2022-12-15T15:11:36.946Z,4.36
2022-12-15T15:14:15.297Z,4.36
2022-12-15T15:16:44.196Z,4.37
2022-12-15T15:19:20.040Z,4.37
2022-12-15T15:21:50.787Z,4.38
2022-12-15T15:24:32.259Z,4.40
2022-12-15T15:27:25.909Z,4.41
2022-12-15T15:29:59.272Z,4.42
2022-12-15T15:32:27.046Z,4.40
2022-12-15T15:34:54.880Z,4.38
2022-12-15T15:37:25.858Z,4.37
2022-12-15T15:39:54.859Z,4.35
2022-12-15T15:42:26.565Z,4.34
2022-12-15T15:44:52.514Z,4.31
2022-12-15T15:47:25.603Z,4.27
2022-12-15T15:49:57.862Z,4.24
2022-12-15T15:52:28.313Z,4.23
2022-12-15T15:54:56.513Z,4.21
2022-12-15T15:57:24.197Z,4.20
2022-12-15T15:59:52.677Z,4.18
2022-12-15T16:02:22.228Z,4.17
2022-12-15T16:04:53.331Z,4.18
2022-12-15T16:07:27.737Z,4.18
2022-12-15T16:10:01.908Z,4.16
2022-12-15T16:12:45.472Z,4.16
2022-12-15T16:15:17.151Z,4.14
2022-12-15T16:17:46.549Z,4.12
2022-12-15T16:20:18.274Z,4.13
2022-12-15T16:22:50.858Z,4.12
2022-12-15T16:25:50.117Z,4.09
2022-12-15T16:28:22.727Z,4.05
2022-12-15T16:30:53.673Z,4.00
2022-12-15T16:33:34.171Z,3.92
2022-12-15T16:36:04.854Z,3.87
2022-12-15T16:38:35.386Z,3.81
2022-12-15T16:41:11.971Z,3.74
2022-12-15T16:43:46.028Z,3.65
2022-12-15T16:46:13.607Z,3.58
2022-12-15T16:48:42.921Z,3.49
2022-12-15T16:51:22.159Z,3.41
2022-12-15T16:53:50.178Z,3.32
2022-12-15T16:56:18.231Z,3.24
2022-12-15T16:58:48.991Z,3.18
2022-12-15T17:01:16.838Z,3.11
2022-12-15T17:03:47.725Z,3.04
2022-12-15T17:06:17.271Z,2.98
2022-12-15T17:08:52.188Z,2.93
2022-12-15T17:11:25.697Z,2.83
2022-12-15T17:13:57.323Z,2.77
2022-12-15T17:16:27.853Z,2.71
2022-12-15T17:18:55.886Z,2.67
2022-12-15T17:21:32.216Z,2.61
2022-12-15T17:24:07.745Z,2.58
2022-12-15T17:26:36.380Z,2.53
2022-12-15T17:29:23.767Z,2.49
2022-12-15T17:31:51.901Z,2.45
2022-12-15T17:34:32.207Z,2.38
2022-12-15T17:37:04.933Z,2.35
2022-12-15T17:39:34.823Z,2.29
2022-12-15T17:42:03.438Z,2.26
2022-12-15T17:44:37.297Z,2.21
2022-12-15T17:47:07.615Z,2.16
2022-12-15T17:49:38.702Z,2.10
2022-12-15T17:52:32.551Z,2.05
2022-12-15T17:55:01.830Z,1.99
2022-12-15T17:57:31.428Z,1.90
2022-12-15T18:00:01.388Z,1.84
2022-12-15T18:02:29.346Z,1.78
2022-12-15T18:04:57.245Z,1.71
2022-12-15T18:07:24.867Z,1.68
2022-12-15T18:09:53.013Z,1.61
2022-12-15T18:12:25.708Z,1.56
2022-12-15T18:14:54.797Z,1.50
2022-12-15T18:17:22.878Z,1.45
2022-12-15T18:19:50.581Z,1.45
2022-12-15T18:22:23.016Z,1.40
2022-12-15T18:24:53.151Z,1.41
2022-12-15T18:27:25.705Z,1.42
2022-12-15T18:29:54.600Z,1.42
2022-12-15T18:32:25.973Z,1.46
2022-12-15T18:34:54.446Z,1.47
2022-12-15T18:37:24.245Z,1.49
2022-12-15T18:39:53.039Z,1.50
2022-12-15T18:42:22.420Z,1.52
2022-12-15T18:44:56.046Z,1.55
2022-12-15T18:47:25.537Z,1.58
2022-12-15T18:49:53.158Z,1.59
2022-12-15T18:52:23.815Z,1.62
2022-12-15T18:54:53.583Z,1.66
2022-12-15T18:57:35.346Z,1.69
2022-12-15T19:00:20.845Z,1.73
2022-12-15T19:02:48.454Z,1.77
2022-12-15T19:05:27.940Z,1.81
2022-12-15T19:08:10.428Z,1.87
2022-12-15T19:10:43.805Z,1.89
2022-12-15T19:13:16.441Z,1.79
2022-12-15T19:15:44.959Z,1.97
2022-12-15T19:18:41.051Z,1.99
2022-12-15T19:21:54.780Z,2.00
2022-12-15T19:24:44.736Z,2.02
2022-12-15T19:27:29.640Z,2.03
2022-12-15T19:29:59.657Z,2.04
2022-12-15T19:32:30.868Z,2.05
2022-12-15T19:35:00.289Z,2.02
2022-12-15T19:37:31.149Z,2.03
2022-12-15T19:40:00.630Z,2.04
2022-12-15T19:42:33.449Z,2.04
2022-12-15T19:45:04.393Z,2.04
2022-12-15T19:47:32.871Z,2.01
2022-12-15T19:50:02.237Z,2.00
2022-12-15T19:52:31.129Z,1.99
2022-12-15T19:54:59.379Z,1.96
2022-12-15T19:57:28.011Z,1.95
2022-12-15T19:59:55.827Z,1.95
2022-12-15T20:02:24.660Z,1.96
2022-12-15T20:04:52.927Z,1.94
2022-12-15T20:07:26.962Z,1.94
2022-12-15T20:09:57.488Z,1.92
2022-12-15T20:12:26.119Z,1.89
2022-12-15T20:14:53.922Z,1.88
2022-12-15T20:17:21.902Z,1.85
2022-12-15T20:19:49.612Z,1.79
2022-12-15T20:22:21.221Z,1.77
2022-12-15T20:24:49.287Z,1.73
2022-12-15T20:27:19.443Z,1.71
2022-12-15T20:29:50.662Z,1.69
2022-12-15T20:32:22.038Z,1.67
2022-12-15T20:34:49.850Z,1.67
2022-12-15T20:37:21.956Z,1.66
2022-12-15T20:39:55.542Z,1.63
2022-12-15T20:42:21.950Z,1.54
2022-12-15T20:44:49.768Z,1.43
2022-12-15T20:47:24.547Z,1.30
2022-12-15T20:49:54.828Z,1.24
2022-12-15T20:52:30.738Z,1.19
2022-12-15T20:54:58.535Z,1.19
2022-12-15T20:57:26.511Z,1.18
2022-12-15T20:59:54.866Z,1.19
2022-12-15T21:02:29.394Z,1.17
2022-12-15T21:05:06.122Z,1.19
2022-12-15T21:07:35.300Z,1.19
2022-12-15T21:10:04.630Z,1.19
2022-12-15T21:12:34.670Z,1.19
2022-12-15T21:15:02.741Z,1.18
2022-12-15T21:17:31.035Z,1.19
2022-12-15T21:19:58.669Z,1.17
2022-12-15T21:22:28.060Z,1.18
2022-12-15T21:24:59.988Z,1.17
2022-12-15T21:27:28.362Z,1.18
2022-12-15T21:29:56.239Z,1.18
2022-12-15T21:32:23.748Z,1.17
2022-12-15T21:34:53.501Z,1.14
2022-12-15T21:37:28.529Z,1.12
2022-12-15T21:40:01.501Z,1.11
2022-12-15T21:42:31.563Z,1.08
2022-12-15T21:45:00.594Z,1.07
2022-12-15T21:47:49.540Z,1.07
2022-12-15T21:50:18.673Z,1.06
2022-12-15T21:52:47.790Z,1.07
2022-12-15T21:55:22.551Z,1.07
2022-12-15T21:57:50.406Z,1.05
2022-12-15T22:00:20.817Z,1.04
2022-12-15T22:02:52.052Z,1.04
2022-12-15T22:05:32.069Z,1.03
2022-12-15T22:08:13.967Z,1.01
2022-12-15T22:10:42.471Z,0.99
2022-12-15T22:13:15.859Z,0.94
2022-12-15T22:15:43.705Z,0.90
2022-12-15T22:18:15.520Z,0.86
2022-12-15T22:20:45.097Z,0.81
2022-12-15T22:23:13.148Z,0.79
2022-12-15T22:25:41.118Z,0.77
2022-12-15T22:28:22.965Z,0.72
2022-12-15T22:30:52.210Z,0.68
2022-12-15T22:33:25.791Z,0.65
2022-12-15T22:35:56.161Z,0.61
2022-12-15T22:38:24.567Z,0.57
2022-12-15T22:40:56.614Z,0.53
2022-12-15T22:43:42.646Z,0.47
2022-12-15T22:46:14.110Z,0.42
2022-12-15T22:48:45.192Z,0.38
2022-12-15T22:51:15.367Z,0.36
2022-12-15T22:53:43.711Z,0.32
2022-12-15T22:56:29.106Z,0.28
2022-12-15T22:59:01.493Z,0.24
2022-12-15T23:01:30.056Z,0.21
2022-12-15T23:03:58.171Z,0.20
2022-12-15T23:06:28.086Z,0.15
2022-12-15T23:08:56.456Z,0.12
2022-12-15T23:11:40.803Z,0.11
2022-12-15T23:14:14.466Z,0.08
2022-12-15T23:16:45.109Z,0.06
2022-12-15T23:19:14.817Z,0.04
2022-12-15T23:21:42.411Z,0.01
2022-12-15T23:24:10.006Z,-0.01
2022-12-15T23:26:37.656Z,-0.02
2022-12-15T23:29:07.594Z,-0.04
2022-12-15T23:31:35.099Z,-0.06
2022-12-15T23:34:02.966Z,-0.06
2022-12-15T23:36:30.669Z,-0.07
2022-12-15T23:39:01.095Z,-0.08
2022-12-15T23:41:29.040Z,-0.11
2022-12-15T23:43:56.910Z,-0.14
2022-12-15T23:46:24.746Z,-0.17
2022-12-15T23:48:52.407Z,-0.17
2022-12-15T23:51:20.806Z,-0.21
2022-12-15T23:53:48.698Z,-0.26
2022-12-15T23:56:21.068Z,-0.29
2022-12-15T23:58:58.176Z,-0.30
